EGPK/PIK METAR and TAF weather

Enter ICAO airport designator
Station Type Date Time Source
EGPK METAR 2019/05/26 23:50 UTC NOAA

EGPK 262350Z 24022KT 9999 FEW015 SCT033 11/09 Q1005


Station Type Date Time Source
EGPK Decoded METAR 2019/05/26 23:50 UTC NOAA

Prestwick Airport, United Kingdom (EGPK) 55-30N 004-35W 0M
May 26, 2019 - 07:50 PM EDT / 2019.05.26 2350 UTC
Wind: from the WSW (240 degrees) at 25 MPH (22 KT):0
Visibility: greater than 7 mile(s):0
Sky conditions: partly cloudy
Temperature: 51 F (11 C)
Dew Point: 48 F (9 C)
Relative Humidity: 87%
Pressure (altimeter): 29.68 in. Hg (1005 hPa)
ob: EGPK 262350Z 24022KT 9999 FEW015 SCT033 11/09 Q1005
cycle: 0

Station Type Date Time Source
EGPK TAF 2019/05/26 18:09 UTC NOAA

TAF EGPK 261656Z 2618/2718 26015KT 9999 SCT020
TEMPO 2618/2622 27018G28KT PROB40
TEMPO 2618/2706 8000 -RA -SHRA BKN014 PROB30
TEMPO 2618/2621 27024G38KT
BECMG 2622/2701 32009KT PROB30
TEMPO 2709/2718 8000 -SHRA

Example: see airport list